Time;durP1;ratioP1;P1;durP2;ratioP2;P2;SDS_P1;SDS_P2;PMS_P1;PMS_P2;Temp;Humidity;BMP_temperature;BMP_pressure;BME280_temperature;BME280_humidity;BME280_pressure;Samples;Min_cycle;Max_cycle;Signal;HPM_P1;HPM_P2
2023/01/27 00:00:31;;;;;;;5.68;1.10;;;5.40;99.90;;;;;;4958707;28;20583;-72
2023/01/27 00:02:57;;;;;;;4.43;0.90;;;5.40;99.90;;;;;;4959138;28;20271;-72
2023/01/27 00:05:23;;;;;;;3.58;0.80;;;5.40;99.90;;;;;;4953632;28;20168;-72
2023/01/27 00:07:48;;;;;;;4.15;1.10;;;5.30;99.90;;;;;;4956739;28;20117;-71
2023/01/27 00:10:16;;;;;;;6.03;1.10;;;5.30;99.90;;;;;;4947732;28;20375;-72
2023/01/27 00:15:28;;;;;;;5.28;1.08;;;5.40;99.90;;;;;;4952393;28;20146;-72
2023/01/27 00:17:54;;;;;;;7.82;1.00;;;5.40;99.90;;;;;;4947111;28;20438;-72
2023/01/27 00:25:49;;;;;;;5.68;0.85;;;5.40;99.90;;;;;;4953603;28;20057;-72
2023/01/27 00:28:21;;;;;;;6.10;0.90;;;5.40;99.90;;;;;;4953851;28;20035;-72
2023/01/27 00:30:51;;;;;;;4.13;0.93;;;5.40;99.90;;;;;;4945762;28;20026;-72
2023/01/27 00:33:28;;;;;;;5.13;1.05;;;5.40;99.90;;;;;;4952193;28;20688;-71
2023/01/27 00:36:02;;;;;;;2.97;1.13;;;5.40;99.90;;;;;;4951659;28;20507;-72
2023/01/27 00:38:29;;;;;;;4.57;1.20;;;5.40;99.90;;;;;;4956810;28;20030;-72
2023/01/27 00:43:40;;;;;;;3.20;0.90;;;5.40;99.90;;;;;;4943244;28;20517;-72
2023/01/27 00:46:06;;;;;;;4.15;1.00;;;5.40;99.90;;;;;;4954008;28;20097;-72
2023/01/27 00:48:31;;;;;;;6.32;1.10;;;5.40;99.90;;;;;;4957866;28;20348;-72
2023/01/27 00:50:57;;;;;;;4.53;1.20;;;5.50;99.90;;;;;;4954393;28;20031;-72
2023/01/27 00:53:23;;;;;;;1.75;0.73;;;5.50;99.90;;;;;;4938671;28;20031;-72
2023/01/27 00:55:48;;;;;;;5.00;0.77;;;5.50;99.90;;;;;;4957066;28;20830;-72
2023/01/27 00:58:14;;;;;;;3.90;1.00;;;5.50;99.90;;;;;;4957602;28;20035;-72
2023/01/27 01:00:40;;;;;;;2.50;0.90;;;5.50;99.90;;;;;;4948519;28;20494;-72
2023/01/27 01:03:06;;;;;;;3.30;0.90;;;5.40;99.90;;;;;;4955415;28;20045;-71
2023/01/27 01:05:32;;;;;;;1.10;0.90;;;5.50;99.90;;;;;;4951009;28;20027;-71
2023/01/27 01:07:57;;;;;;;1.67;0.80;;;5.40;99.90;;;;;;4946801;28;20057;-72
2023/01/27 01:10:23;;;;;;;4.60;1.30;;;5.40;99.90;;;;;;4957473;28;20533;-72
2023/01/27 01:12:48;;;;;;;2.55;0.88;;;5.50;99.90;;;;;;4955578;28;20050;-71
2023/01/27 01:15:14;;;;;;;5.05;0.93;;;5.50;99.90;;;;;;4940956;28;20033;-72
2023/01/27 01:17:40;;;;;;;1.30;0.93;;;5.50;99.90;;;;;;4950248;28;20376;-72
2023/01/27 01:20:07;;;;;;;2.40;0.90;;;5.50;99.90;;;;;;4935684;28;20133;-72
2023/01/27 01:22:33;;;;;;;3.13;1.10;;;5.50;99.90;;;;;;4956198;28;20086;-72
2023/01/27 01:24:59;;;;;;;2.20;1.00;;;5.50;99.90;;;;;;4955274;28;20090;-72
2023/01/27 01:27:25;;;;;;;5.40;1.30;;;5.50;99.90;;;;;;4957220;28;20038;-72
2023/01/27 01:29:50;;;;;;;3.00;1.00;;;5.50;99.90;;;;;;4956916;28;20118;-72
2023/01/27 01:32:16;;;;;;;3.78;1.20;;;5.50;99.90;;;;;;4939240;28;20323;-71
2023/01/27 01:34:42;;;;;;;3.17;1.10;;;5.40;99.90;;;;;;4950691;28;20089;-72
2023/01/27 01:37:08;;;;;;;3.38;1.20;;;5.50;99.90;;;;;;4944939;28;20034;-72
2023/01/27 01:39:34;;;;;;;3.72;1.38;;;5.50;99.90;;;;;;4961977;28;20057;-71
2023/01/27 01:42:00;;;;;;;3.95;1.58;;;5.50;99.90;;;;;;4954657;28;20060;-71
2023/01/27 01:44:30;;;;;;;2.42;1.30;;;5.40;99.90;;;;;;4956926;28;20018;-71
2023/01/27 01:46:56;;;;;;;2.20;1.23;;;5.50;99.90;;;;;;4960079;28;20086;-72
2023/01/27 01:49:44;;;;;;;3.70;1.38;;;5.50;99.90;;;;;;4962007;28;20031;-72
2023/01/27 01:52:14;;;;;;;1.95;1.20;;;5.50;99.90;;;;;;4942963;28;20395;-71
2023/01/27 01:54:48;;;;;;;5.13;1.77;;;5.50;99.90;;;;;;4958709;28;20027;-72
2023/01/27 01:57:18;;;;;;;2.60;1.40;;;5.40;99.90;;;;;;4960595;28;20050;-71
2023/01/27 02:00:01;;;;;;;3.53;1.40;;;5.50;99.90;;;;;;4959081;28;20078;-71
2023/01/27 02:02:28;;;;;;;6.70;2.00;;;5.40;99.90;;;;;;4943869;28;20035;-71
2023/01/27 02:05:01;;;;;;;1.85;1.42;;;5.30;99.90;;;;;;4960974;28;20035;-72
2023/01/27 02:07:34;;;;;;;2.90;1.65;;;5.40;99.90;;;;;;4943627;28;20482;-71
2023/01/27 02:10:01;;;;;;;2.42;1.50;;;5.40;99.90;;;;;;4959775;28;20505;-71
2023/01/27 02:12:27;;;;;;;2.22;1.38;;;5.30;99.90;;;;;;4955676;28;20035;-71
2023/01/27 02:14:53;;;;;;;1.88;1.20;;;5.30;99.90;;;;;;4959447;28;20023;-72
2023/01/27 02:17:19;;;;;;;2.60;1.27;;;5.30;99.90;;;;;;4960536;28;20039;-71
2023/01/27 02:19:47;;;;;;;2.90;1.20;;;5.30;99.90;;;;;;4960504;28;20565;-72
2023/01/27 02:22:21;;;;;;;3.92;1.10;;;5.30;99.90;;;;;;4959168;28;20485;-72
2023/01/27 02:24:54;;;;;;;5.03;1.20;;;5.40;99.90;;;;;;4959870;28;20443;-71
2023/01/27 02:27:20;;;;;;;2.70;1.15;;;5.30;99.90;;;;;;4957304;28;20489;-71
2023/01/27 02:29:46;;;;;;;1.38;1.00;;;5.30;99.90;;;;;;4957568;28;20558;-71
2023/01/27 02:32:24;;;;;;;1.95;1.02;;;5.40;99.90;;;;;;4961424;28;20461;-72
2023/01/27 02:34:52;;;;;;;5.10;1.00;;;5.30;99.90;;;;;;4940482;28;20118;-72
2023/01/27 02:37:19;;;;;;;3.30;0.90;;;5.40;99.90;;;;;;4951334;28;20386;-71
2023/01/27 02:39:48;;;;;;;2.45;1.10;;;5.40;99.90;;;;;;4947943;28;20137;-72
2023/01/27 02:42:16;;;;;;;3.35;1.10;;;5.40;99.90;;;;;;4952309;28;20182;-71
2023/01/27 02:44:41;;;;;;;2.92;1.20;;;5.40;99.90;;;;;;4962066;28;20034;-71
2023/01/27 02:47:07;;;;;;;5.00;1.20;;;5.30;99.90;;;;;;4963683;28;20206;-72
2023/01/27 02:49:33;;;;;;;7.63;1.10;;;5.40;99.90;;;;;;4942397;28;20314;-71
2023/01/27 02:51:58;;;;;;;1.40;0.82;;;5.40;99.90;;;;;;4933361;28;20061;-70
2023/01/27 02:54:25;;;;;;;4.45;1.13;;;5.40;99.90;;;;;;4956449;28;20616;-71
2023/01/27 02:56:51;;;;;;;4.07;1.17;;;5.30;99.90;;;;;;4954743;28;20035;-71
2023/01/27 02:59:17;;;;;;;1.75;1.10;;;5.40;99.90;;;;;;4952579;28;20050;-71
2023/01/27 03:01:43;;;;;;;2.08;1.02;;;5.40;99.90;;;;;;4953250;28;20050;-71
2023/01/27 03:04:10;;;;;;;2.58;0.90;;;5.40;99.90;;;;;;4958230;28;20444;-71
2023/01/27 03:06:36;;;;;;;3.78;1.10;;;5.40;99.90;;;;;;4956570;28;20038;-71
2023/01/27 03:09:04;;;;;;;4.35;1.27;;;5.40;99.90;;;;;;4957015;28;20046;-71
2023/01/27 03:14:13;;;;;;;3.28;1.20;;;5.30;99.90;;;;;;4940672;28;20049;-71
2023/01/27 03:19:25;;;;;;;4.78;1.33;;;5.30;99.90;;;;;;4952612;28;20184;-71
2023/01/27 03:21:52;;;;;;;1.95;1.30;;;5.30;99.90;;;;;;4958447;28;20070;-71
2023/01/27 03:24:18;;;;;;;2.83;1.23;;;5.30;99.90;;;;;;4955636;28;20030;-71
2023/01/27 03:26:44;;;;;;;2.75;1.10;;;5.30;99.90;;;;;;4950846;28;20065;-71
2023/01/27 03:31:54;;;;;;;2.92;1.13;;;5.40;99.90;;;;;;4959097;28;20100;-71
2023/01/27 03:34:19;;;;;;;7.00;1.45;;;5.30;99.90;;;;;;4951894;28;20422;-71
2023/01/27 03:47:42;;;;;;;3.90;1.35;;;5.00;99.90;;;;;;4958336;28;20050;-71
2023/01/27 03:50:10;;;;;;;1.63;1.30;;;5.00;99.90;;;;;;4954251;28;20549;-71
2023/01/27 03:52:39;;;;;;;2.47;1.45;;;5.00;99.90;;;;;;4952342;28;20027;-71
2023/01/27 03:55:05;;;;;;;3.38;1.50;;;5.00;99.90;;;;;;4957001;28;20031;-71
2023/01/27 03:57:31;;;;;;;5.85;1.70;;;5.00;99.90;;;;;;4955075;28;20402;-71
2023/01/27 03:59:57;;;;;;;3.00;1.67;;;5.00;99.90;;;;;;4957495;28;20158;-71
2023/01/27 04:07:51;;;;;;;1.98;1.58;;;5.20;99.90;;;;;;4958332;28;20143;-71
2023/01/27 04:10:17;;;;;;;2.17;1.60;;;5.10;99.90;;;;;;4959819;28;20120;-70
2023/01/27 04:12:42;;;;;;;2.40;1.83;;;5.20;99.90;;;;;;4955577;28;20446;-72
2023/01/27 04:15:08;;;;;;;3.13;2.00;;;5.20;99.90;;;;;;4952453;28;20026;-71
2023/01/27 04:17:37;;;;;;;2.28;1.63;;;5.20;99.90;;;;;;4946079;28;20035;-71
2023/01/27 04:20:04;;;;;;;3.15;2.08;;;5.20;99.90;;;;;;4939365;28;20142;-71
2023/01/27 04:22:30;;;;;;;4.10;2.05;;;5.20;99.90;;;;;;4952654;28;20046;-70
2023/01/27 04:24:55;;;;;;;3.90;2.30;;;5.20;99.90;;;;;;4955859;28;20473;-70
2023/01/27 04:27:21;;;;;;;2.42;1.98;;;5.20;99.90;;;;;;4954825;28;20051;-71
2023/01/27 04:29:47;;;;;;;3.70;2.10;;;5.20;99.90;;;;;;4941896;28;20110;-70
2023/01/27 04:32:13;;;;;;;5.32;2.60;;;5.20;99.90;;;;;;4958664;28;20094;-70
2023/01/27 04:34:39;;;;;;;2.90;2.20;;;5.20;99.90;;;;;;4940269;28;20123;-71
2023/01/27 04:37:07;;;;;;;3.75;2.20;;;5.10;99.90;;;;;;4938858;28;20187;-70
2023/01/27 04:39:34;;;;;;;3.58;2.33;;;5.10;99.90;;;;;;4944718;28;20126;-70
2023/01/27 04:41:59;;;;;;;5.88;2.85;;;5.20;99.90;;;;;;4953080;28;20126;-70
2023/01/27 04:44:25;;;;;;;4.43;2.65;;;5.20;99.90;;;;;;4946841;28;20076;-70
2023/01/27 04:46:52;;;;;;;4.15;2.60;;;5.20;99.90;;;;;;4956791;28;20046;-70
2023/01/27 04:49:18;;;;;;;4.38;3.03;;;5.10;99.90;;;;;;4935625;28;20050;-70
2023/01/27 04:51:44;;;;;;;3.83;3.10;;;5.10;99.90;;;;;;4938523;28;20038;-70
2023/01/27 04:54:10;;;;;;;4.95;3.03;;;5.00;99.90;;;;;;4958619;28;20042;-70
2023/01/27 04:56:43;;;;;;;5.82;3.45;;;5.00;99.90;;;;;;4957023;28;20093;-70
2023/01/27 04:59:15;;;;;;;6.35;3.00;;;4.90;99.90;;;;;;4955626;28;20125;-70
2023/01/27 05:01:41;;;;;;;4.63;2.90;;;4.90;99.90;;;;;;4937227;28;20414;-70
2023/01/27 05:04:06;;;;;;;5.15;3.13;;;5.00;99.90;;;;;;4950125;28;20031;-70
2023/01/27 05:06:32;;;;;;;6.13;2.80;;;5.00;99.90;;;;;;4962313;28;20077;-71
2023/01/27 05:08:58;;;;;;;5.53;3.20;;;5.00;99.90;;;;;;4963056;28;20147;-70
2023/01/27 05:11:24;;;;;;;8.60;2.85;;;4.90;99.90;;;;;;4941012;28;20031;-71
2023/01/27 05:13:50;;;;;;;4.43;2.95;;;4.90;99.90;;;;;;4956706;28;20035;-70
2023/01/27 05:16:18;;;;;;;4.55;2.90;;;5.00;99.90;;;;;;4952920;28;20053;-69
2023/01/27 05:18:46;;;;;;;4.85;2.63;;;4.90;99.90;;;;;;4955396;28;20030;-72
2023/01/27 05:21:18;;;;;;;4.60;3.00;;;4.90;99.90;;;;;;4943368;28;20093;-72
2023/01/27 05:23:44;;;;;;;3.92;3.00;;;4.80;99.90;;;;;;4959695;28;20118;-72
2023/01/27 05:26:13;;;;;;;3.83;2.70;;;4.80;99.90;;;;;;4958844;28;20058;-72
2023/01/27 05:28:40;;;;;;;5.43;2.75;;;4.80;99.90;;;;;;4959239;28;20587;-71
2023/01/27 05:31:14;;;;;;;4.68;3.03;;;4.90;99.90;;;;;;4961493;28;20705;-72
2023/01/27 05:33:41;;;;;;;4.13;2.78;;;4.90;99.90;;;;;;4958091;28;20035;-72
2023/01/27 05:36:09;;;;;;;4.15;2.63;;;4.90;99.90;;;;;;4938584;28;20035;-72
2023/01/27 05:38:35;;;;;;;5.28;3.13;;;4.80;99.90;;;;;;4958129;28;20035;-72
2023/01/27 05:41:04;;;;;;;3.45;3.13;;;4.80;99.90;;;;;;4961930;28;20037;-72
2023/01/27 05:43:31;;;;;;;4.32;3.33;;;4.80;99.90;;;;;;4960372;28;20034;-72
2023/01/27 05:46:04;;;;;;;6.55;3.20;;;4.80;99.90;;;;;;4960094;28;20109;-72
2023/01/27 05:48:32;;;;;;;4.68;3.22;;;4.70;99.90;;;;;;4962633;28;20099;-72
2023/01/27 05:50:58;;;;;;;4.40;3.00;;;4.80;99.90;;;;;;4954290;28;20573;-71
2023/01/27 05:53:24;;;;;;;4.05;3.10;;;4.80;99.90;;;;;;4960934;28;20057;-72
2023/01/27 05:55:50;;;;;;;5.50;2.42;;;4.70;99.90;;;;;;4960399;28;20482;-72
2023/01/27 05:58:16;;;;;;;4.30;2.97;;;4.80;99.90;;;;;;4955891;28;20039;-72
2023/01/27 06:00:42;;;;;;;4.93;2.70;;;4.80;99.90;;;;;;4960881;28;20065;-72
2023/01/27 06:03:08;;;;;;;6.15;2.80;;;4.80;99.90;;;;;;4952587;28;20038;-71
2023/01/27 06:05:33;;;;;;;7.25;2.85;;;4.80;99.90;;;;;;4956803;28;20026;-71
2023/01/27 06:07:59;;;;;;;7.18;2.80;;;4.80;99.90;;;;;;4958007;28;20038;-72
2023/01/27 06:10:25;;;;;;;5.13;2.42;;;4.80;99.90;;;;;;4962282;28;20035;-72
2023/01/27 06:12:50;;;;;;;2.78;2.30;;;4.80;99.90;;;;;;4950722;28;20388;-72
2023/01/27 06:15:16;;;;;;;5.63;2.25;;;4.80;99.90;;;;;;4932211;28;20747;-71
2023/01/27 06:17:41;;;;;;;3.83;1.98;;;4.80;99.90;;;;;;4942877;28;20034;-72
2023/01/27 06:20:08;;;;;;;5.88;2.47;;;4.80;99.90;;;;;;4955164;28;20046;-72
2023/01/27 06:22:34;;;;;;;6.55;2.25;;;4.80;99.90;;;;;;4956631;28;20046;-72
2023/01/27 06:24:59;;;;;;;7.18;1.80;;;4.80;99.90;;;;;;4956671;28;20030;-72
2023/01/27 06:27:25;;;;;;;5.72;1.65;;;4.80;99.90;;;;;;4946620;28;20136;-72
2023/01/27 06:29:50;;;;;;;5.53;1.80;;;4.80;99.90;;;;;;4942234;28;20058;-72
2023/01/27 06:32:16;;;;;;;6.85;1.90;;;4.90;99.90;;;;;;4956810;28;20088;-72
2023/01/27 06:34:42;;;;;;;4.03;1.90;;;4.90;99.90;;;;;;4958006;28;20029;-72
2023/01/27 06:37:07;;;;;;;5.45;2.00;;;4.90;99.90;;;;;;4957000;28;20483;-72
2023/01/27 06:39:33;;;;;;;5.43;2.17;;;4.90;99.90;;;;;;4953748;28;20047;-72
2023/01/27 06:41:58;;;;;;;5.15;1.92;;;4.80;99.90;;;;;;4949075;28;20035;-72
2023/01/27 06:44:24;;;;;;;9.80;1.67;;;4.80;99.90;;;;;;4957401;28;20065;-72
2023/01/27 06:46:52;;;;;;;10.00;1.88;;;4.80;99.90;;;;;;4952784;28;20162;-72
2023/01/27 06:49:18;;;;;;;5.15;1.58;;;4.80;99.90;;;;;;4956617;28;20706;-72
2023/01/27 06:51:43;;;;;;;4.78;1.55;;;4.80;99.90;;;;;;4951169;28;20033;-72
2023/01/27 06:54:10;;;;;;;4.72;2.20;;;4.80;99.90;;;;;;4953815;28;20034;-72
2023/01/27 06:56:35;;;;;;;9.15;2.10;;;4.80;99.90;;;;;;4957098;28;20490;-71
2023/01/27 06:59:01;;;;;;;4.47;1.40;;;4.90;99.90;;;;;;4958216;28;20039;-71
2023/01/27 07:01:27;;;;;;;2.97;1.70;;;4.90;99.90;;;;;;4954912;28;20031;-72
2023/01/27 07:03:52;;;;;;;8.77;2.17;;;4.90;99.90;;;;;;4950445;28;20113;-71
2023/01/27 07:06:19;;;;;;;11.07;5.60;;;4.80;99.90;;;;;;4937855;28;20074;-71
2023/01/27 07:08:46;;;;;;;13.05;5.30;;;4.90;99.90;;;;;;4956536;28;20050;-71
2023/01/27 07:11:12;;;;;;;9.30;2.65;;;4.90;99.90;;;;;;4956538;28;20031;-71
2023/01/27 07:13:37;;;;;;;5.05;2.00;;;4.90;99.90;;;;;;4946367;28;20050;-71
2023/01/27 07:16:03;;;;;;;9.50;2.30;;;4.90;99.90;;;;;;4955798;28;20118;-71
2023/01/27 07:18:29;;;;;;;8.07;2.28;;;4.90;99.90;;;;;;4955655;28;20355;-71
2023/01/27 07:20:55;;;;;;;4.97;1.63;;;4.90;99.90;;;;;;4940684;28;20026;-72
2023/01/27 07:23:21;;;;;;;4.80;2.22;;;4.90;99.90;;;;;;4960087;28;20500;-71
2023/01/27 07:25:46;;;;;;;30.45;10.75;;;4.90;99.90;;;;;;4960254;28;20039;-71
2023/01/27 07:28:12;;;;;;;7.65;3.17;;;4.90;99.90;;;;;;4951622;28;20157;-71
2023/01/27 07:30:38;;;;;;;10.85;2.90;;;4.90;99.90;;;;;;4953957;28;20151;-71
2023/01/27 07:33:08;;;;;;;8.68;2.65;;;4.90;99.90;;;;;;4957549;28;20120;-71
2023/01/27 07:35:35;;;;;;;7.60;2.45;;;4.90;99.90;;;;;;4956438;28;20486;-72
2023/01/27 07:38:01;;;;;;;9.40;2.63;;;4.90;99.90;;;;;;4948270;28;20046;-71
2023/01/27 07:40:27;;;;;;;31.02;14.32;;;5.00;99.90;;;;;;4946826;28;20053;-71
2023/01/27 07:42:56;;;;;;;12.18;4.10;;;5.00;99.90;;;;;;4958697;28;20405;-72
2023/01/27 07:45:22;;;;;;;11.25;3.00;;;5.00;99.90;;;;;;4946389;28;20490;-71
2023/01/27 07:47:47;;;;;;;7.13;2.20;;;5.00;99.90;;;;;;4954733;28;20062;-72
2023/01/27 07:50:13;;;;;;;7.70;2.47;;;5.00;99.90;;;;;;4972066;28;20042;-71
2023/01/27 07:52:38;;;;;;;5.53;1.90;;;5.00;99.90;;;;;;4947357;28;20630;-71
2023/01/27 07:55:04;;;;;;;5.95;1.73;;;5.00;99.90;;;;;;4941457;28;20050;-72
2023/01/27 07:57:30;;;;;;;9.75;2.38;;;5.00;99.90;;;;;;4946492;28;20494;-71
2023/01/27 07:59:56;;;;;;;8.68;1.90;;;5.00;99.90;;;;;;4956540;28;20022;-71
2023/01/27 08:02:22;;;;;;;9.85;2.22;;;5.00;99.90;;;;;;4938307;28;20323;-71
2023/01/27 08:04:49;;;;;;;12.23;1.80;;;5.00;99.90;;;;;;4944408;28;20034;-71
2023/01/27 08:07:15;;;;;;;7.95;1.73;;;5.00;99.90;;;;;;4943556;28;20094;-71
2023/01/27 08:09:41;;;;;;;10.07;2.25;;;5.00;99.90;;;;;;4949275;28;20034;-70
2023/01/27 08:12:07;;;;;;;10.70;2.47;;;5.00;99.90;;;;;;4933444;28;20039;-71
2023/01/27 08:14:33;;;;;;;8.65;1.88;;;5.10;99.90;;;;;;4952718;28;20504;-70
2023/01/27 08:16:59;;;;;;;5.70;1.67;;;5.20;99.90;;;;;;4951040;28;20035;-70
2023/01/27 08:19:25;;;;;;;8.55;1.70;;;5.30;99.90;;;;;;4955811;28;20031;-70
2023/01/27 08:21:50;;;;;;;8.02;1.80;;;5.50;99.90;;;;;;4946356;28;20470;-70
2023/01/27 08:24:16;;;;;;;8.65;2.05;;;5.60;99.90;;;;;;4956542;28;20019;-70
2023/01/27 08:26:42;;;;;;;88.05;40.35;;;5.70;99.90;;;;;;4949809;28;20073;-70
2023/01/27 08:29:07;;;;;;;26.77;10.43;;;5.90;99.90;;;;;;4951826;28;20081;-71
2023/01/27 08:31:33;;;;;;;6.53;1.48;;;6.00;99.90;;;;;;4952171;28;20050;-70
2023/01/27 08:33:59;;;;;;;4.85;2.30;;;6.20;99.90;;;;;;4955248;28;20041;-71
2023/01/27 08:36:24;;;;;;;4.97;1.30;;;6.30;99.90;;;;;;4956639;28;20235;-71
2023/01/27 08:38:51;;;;;;;6.97;1.55;;;6.40;99.90;;;;;;4931603;28;20122;-71
2023/01/27 08:41:19;;;;;;;26.02;10.27;;;6.60;99.90;;;;;;4942068;28;20126;-71
2023/01/27 08:43:45;;;;;;;8.63;2.10;;;6.70;99.90;;;;;;4939305;28;20035;-70
2023/01/27 08:46:11;;;;;;;7.05;2.50;;;6.60;99.90;;;;;;4943471;28;20583;-70
2023/01/27 08:48:37;;;;;;;10.07;1.60;;;6.60;99.90;;;;;;4942297;28;21761;-70
2023/01/27 08:51:04;;;;;;;8.60;1.70;;;6.50;99.90;;;;;;4948030;28;20406;-71
2023/01/27 08:53:30;;;;;;;7.38;1.98;;;6.70;99.90;;;;;;4947243;28;20030;-70
2023/01/27 08:55:57;;;;;;;7.53;2.17;;;6.90;99.90;;;;;;4940170;28;20029;-71
2023/01/27 08:58:24;;;;;;;7.80;2.03;;;7.30;99.90;;;;;;4925159;28;20034;-71
2023/01/27 09:00:49;;;;;;;10.52;2.35;;;7.40;94.90;;;;;;4950017;28;20982;-70
2023/01/27 09:03:15;;;;;;;7.75;1.40;;;7.50;94.90;;;;;;4939775;28;20042;-71
2023/01/27 09:05:41;;;;;;;6.45;1.52;;;7.60;90.70;;;;;;4926610;28;20069;-71
2023/01/27 09:08:07;;;;;;;6.47;1.90;;;7.60;94.30;;;;;;4954353;28;20050;-71
2023/01/27 09:10:39;;;;;;;7.45;1.45;;;7.80;92.20;;;;;;4954293;28;20022;-71
2023/01/27 09:13:04;;;;;;;5.35;1.30;;;8.10;90.20;;;;;;4954259;28;20141;-71
2023/01/27 09:15:30;;;;;;;7.15;1.20;;;8.60;87.80;;;;;;4951445;28;20466;-71
2023/01/27 09:17:56;;;;;;;6.15;1.20;;;9.40;78.60;;;;;;4941464;28;20150;-71
2023/01/27 09:20:22;;;;;;;5.43;1.00;;;10.10;74.10;;;;;;4942969;28;20038;-71
2023/01/27 09:22:47;;;;;;;9.05;1.83;;;10.30;70.70;;;;;;4946025;28;20034;-71
2023/01/27 09:25:15;;;;;;;3.50;1.17;;;10.80;66.50;;;;;;4948175;28;20723;-71
2023/01/27 09:27:42;;;;;;;6.65;1.02;;;12.20;64.70;;;;;;4587500;28;9999997;-71
2023/01/27 09:30:10;;;;;;;5.60;1.27;;;14.00;57.20;;;;;;4927401;28;21710;-72
2023/01/27 09:32:36;;;;;;;2.72;1.00;;;15.50;52.20;;;;;;4926394;28;20466;-71
2023/01/27 09:35:03;;;;;;;7.93;0.80;;;17.30;47.10;;;;;;4941317;28;20062;-71
2023/01/27 09:37:29;;;;;;;4.55;1.10;;;18.60;43.80;;;;;;4951610;28;20034;-71
2023/01/27 09:40:01;;;;;;;6.20;1.10;;;18.60;43.10;;;;;;4966119;28;20046;-71
2023/01/27 09:42:26;;;;;;;;;;;18.50;42.30;;;;;;4947475;28;20037;-71
2023/01/27 09:44:52;;;;;;;4.97;0.90;;;17.80;41.70;;;;;;4954754;28;20304;-70
2023/01/27 09:47:58;;;;;;;6.75;1.40;;;16.20;45.10;;;;;;4950282;28;20042;-72
2023/01/27 09:50:32;;;;;;;4.53;1.10;;;15.00;49.50;;;;;;4936933;28;20837;-71
2023/01/27 09:53:11;;;;;;;6.15;1.20;;;13.60;52.80;;;;;;4957702;28;20031;-71
2023/01/27 09:55:57;;;;;;;7.88;1.40;;;13.30;55.00;;;;;;4937010;28;20031;-71
2023/01/27 09:58:28;;;;;;;5.80;1.30;;;13.40;55.30;;;;;;4920900;28;20459;-71
2023/01/27 10:01:03;;;;;;;2.67;1.00;;;12.90;55.90;;;;;;4953567;28;20518;-71
2023/01/27 10:03:42;;;;;;;7.45;1.50;;;12.90;56.40;;;;;;4923878;28;20046;-71
2023/01/27 10:06:44;;;;;;;3.53;1.30;;;12.30;56.80;;;;;;4941510;28;20073;-72
2023/01/27 10:09:22;;;;;;;6.55;1.23;;;11.70;59.30;;;;;;4946992;28;20422;-71
2023/01/27 10:12:12;;;;;;;7.72;1.30;;;11.60;61.40;;;;;;4947179;28;20390;-71
2023/01/27 10:14:58;;;;;;;8.27;1.38;;;11.20;61.60;;;;;;4949889;28;20453;-71
2023/01/27 10:17:41;;;;;;;8.80;1.65;;;11.40;62.40;;;;;;4947779;28;20659;-71
2023/01/27 10:20:12;;;;;;;10.13;1.30;;;11.40;62.10;;;;;;4953535;28;20050;-72
2023/01/27 10:23:04;;;;;;;3.55;1.00;;;11.80;59.30;;;;;;4942362;28;20460;-71
2023/01/27 10:26:05;;;;;;;5.22;1.30;;;12.20;58.90;;;;;;4953055;28;20027;-71
2023/01/27 10:28:33;;;;;;;9.23;1.40;;;11.20;61.40;;;;;;4959764;28;20997;-71
2023/01/27 10:31:01;;;;;;;7.15;1.52;;;11.30;63.30;;;;;;4956398;28;20101;-71
2023/01/27 10:34:02;;;;;;;7.65;1.60;;;11.40;60.00;;;;;;4959944;28;20030;-71
2023/01/27 10:36:31;;;;;;;6.90;1.50;;;11.00;64.70;;;;;;4912245;28;20249;-71
2023/01/27 10:39:35;;;;;;;8.68;1.33;;;11.40;63.00;;;;;;4936028;28;20121;-70
2023/01/27 10:42:24;;;;;;;5.22;1.20;;;11.20;62.40;;;;;;4934311;28;20043;-72
2023/01/27 10:45:08;;;;;;;4.88;1.17;;;11.60;63.40;;;;;;4954134;28;20059;-71
2023/01/27 10:47:40;;;;;;;9.95;1.52;;;11.50;60.90;;;;;;4941732;28;20536;-71
2023/01/27 10:50:12;;;;;;;11.73;1.00;;;11.50;61.80;;;;;;4944072;28;20023;-71
2023/01/27 10:53:11;;;;;;;7.57;1.80;;;11.70;59.90;;;;;;4953039;28;20093;-72
2023/01/27 10:55:42;;;;;;;7.32;1.45;;;11.50;60.30;;;;;;4942259;28;20029;-73
2023/01/27 10:58:34;;;;;;;6.57;1.23;;;12.20;61.90;;;;;;4945091;28;20035;-72
2023/01/27 11:01:01;;;;;;;8.38;1.10;;;12.30;57.70;;;;;;4924304;28;20089;-70
2023/01/27 11:03:33;;;;;;;4.55;0.93;;;12.50;56.80;;;;;;4939254;28;20062;-72
2023/01/27 11:06:07;;;;;;;8.98;1.50;;;13.20;58.10;;;;;;4941095;28;20078;-73
2023/01/27 11:08:37;;;;;;;6.97;1.33;;;13.60;54.40;;;;;;4943703;28;20574;-72
2023/01/27 11:14:03;;;;;;;5.45;1.23;;;14.50;53.70;;;;;;4949646;28;20082;-72
2023/01/27 11:16:36;;;;;;;7.40;1.10;;;13.70;54.30;;;;;;4954075;28;20029;-72
2023/01/27 11:19:30;;;;;;;7.60;1.30;;;13.10;55.90;;;;;;4954217;28;20035;-72
2023/01/27 11:21:56;;;;;;;8.45;1.33;;;12.00;58.40;;;;;;4933826;28;20117;-72
2023/01/27 11:24:51;;;;;;;8.40;1.40;;;11.40;60.10;;;;;;4957804;28;20105;-72
2023/01/27 11:27:31;;;;;;;10.15;1.30;;;10.60;61.40;;;;;;4956811;28;20934;-72
2023/01/27 11:30:17;;;;;;;6.50;1.20;;;10.10;67.10;;;;;;4941352;28;20370;-72
2023/01/27 11:32:53;;;;;;;10.32;1.38;;;10.00;71.50;;;;;;4954417;28;20556;-72
2023/01/27 11:35:21;;;;;;;8.95;1.52;;;9.70;69.90;;;;;;4934365;28;20039;-72
2023/01/27 11:37:55;;;;;;;8.35;1.40;;;9.60;70.70;;;;;;4950093;28;20386;-71
2023/01/27 11:40:42;;;;;;;9.88;1.88;;;9.30;71.90;;;;;;4950165;28;20058;-71
2023/01/27 11:43:16;;;;;;;7.32;1.33;;;9.20;74.30;;;;;;4944294;28;20031;-72
2023/01/27 11:45:44;;;;;;;9.60;1.20;;;9.20;77.80;;;;;;4947896;28;20113;-72
2023/01/27 11:48:15;;;;;;;6.55;1.20;;;9.40;72.80;;;;;;4956717;28;20050;-72
2023/01/27 11:50:41;;;;;;;11.70;1.30;;;9.50;75.10;;;;;;4954332;28;20030;-72
2023/01/27 11:53:13;;;;;;;6.32;1.27;;;9.60;69.80;;;;;;4939194;29;20035;-72
2023/01/27 11:55:47;;;;;;;;;;;9.70;69.00;;;;;;4950249;28;20168;-72
2023/01/27 11:58:27;;;;;;;4.43;0.93;;;9.80;70.50;;;;;;4956258;28;19910;-72
2023/01/27 12:01:00;;;;;;;5.93;1.30;;;9.40;69.10;;;;;;4955365;28;20034;-72
2023/01/27 12:03:29;;;;;;;10.48;1.48;;;9.10;70.60;;;;;;4957340;28;20113;-72
2023/01/27 12:05:58;;;;;;;8.68;1.50;;;9.00;73.50;;;;;;4953333;28;20036;-71
2023/01/27 12:08:43;;;;;;;6.35;1.40;;;8.80;73.80;;;;;;4946333;28;20109;-72
2023/01/27 12:11:20;;;;;;;3.03;1.20;;;8.90;79.70;;;;;;4942207;28;20637;-72
2023/01/27 12:13:56;;;;;;;7.35;1.13;;;9.10;78.10;;;;;;4941069;28;20035;-72
2023/01/27 12:16:38;;;;;;;8.40;1.20;;;9.40;73.30;;;;;;4950389;28;20031;-70
2023/01/27 12:19:20;;;;;;;8.40;1.40;;;9.30;69.30;;;;;;4939562;28;20027;-71
2023/01/27 12:21:51;;;;;;;9.38;1.35;;;9.20;73.00;;;;;;4947948;28;20435;-73
2023/01/27 12:24:37;;;;;;;4.47;1.38;;;9.10;74.20;;;;;;4948471;28;20058;-72
2023/01/27 12:27:05;;;;;;;9.45;1.55;;;9.10;76.20;;;;;;4598427;28;9999992;-72
2023/01/27 12:29:43;;;;;;;7.95;1.33;;;9.40;72.50;;;;;;4947426;28;20110;-72
2023/01/27 12:32:38;;;;;;;10.48;1.58;;;9.60;71.60;;;;;;4947282;28;20063;-72
2023/01/27 12:35:06;;;;;;;5.60;1.10;;;9.90;70.00;;;;;;4958313;28;20110;-72
2023/01/27 12:37:36;;;;;;;7.32;1.20;;;9.80;69.20;;;;;;4957353;28;20046;-72
2023/01/27 12:40:07;;;;;;;6.93;1.43;;;9.80;69.00;;;;;;4959258;28;20134;-72
2023/01/27 12:42:40;;;;;;;3.90;1.20;;;9.50;66.80;;;;;;4958747;28;20281;-72
2023/01/27 12:45:28;;;;;;;4.63;0.90;;;9.20;67.40;;;;;;4946513;28;20493;-72
2023/01/27 12:48:00;;;;;;;6.38;1.00;;;8.90;68.90;;;;;;4949315;28;20031;-72
2023/01/27 12:50:26;;;;;;;;;;;8.80;71.40;;;;;;4945015;28;20546;-72
2023/01/27 12:53:16;;;;;;;5.03;1.10;;;8.70;72.00;;;;;;4944210;28;19921;-72
2023/01/27 12:56:01;;;;;;;8.90;1.02;;;9.30;71.90;;;;;;4925684;28;20293;-72
2023/01/27 12:58:55;;;;;;;5.53;1.42;;;10.50;67.90;;;;;;4955615;28;20118;-72
2023/01/27 13:01:37;;;;;;;4.55;1.20;;;11.30;62.00;;;;;;4957134;28;20038;-72
2023/01/27 13:04:12;;;;;;;;;;;12.00;57.70;;;;;;4956890;28;20343;-72
2023/01/27 13:06:41;;;;;;;7.30;1.20;;;13.00;59.40;;;;;;4952006;28;20443;-72
2023/01/27 13:09:26;;;;;;;6.85;1.13;;;13.30;55.90;;;;;;4951651;28;20534;-72
2023/01/27 13:11:54;;;;;;;3.75;0.90;;;13.80;55.90;;;;;;4938141;28;20027;-72
2023/01/27 13:14:20;;;;;;;4.68;0.73;;;13.70;51.50;;;;;;4954648;28;20030;-72
2023/01/27 13:16:53;;;;;;;8.13;1.10;;;13.50;51.90;;;;;;4955551;28;20381;-72
2023/01/27 13:19:21;;;;;;;3.42;0.70;;;13.30;53.90;;;;;;4955425;28;20027;-73
2023/01/27 13:21:52;;;;;;;7.70;2.40;;;13.90;53.90;;;;;;4947494;28;20031;-73
2023/01/27 13:24:30;;;;;;;7.90;2.38;;;13.30;52.30;;;;;;4954549;28;20029;-72
2023/01/27 13:26:56;;;;;;;7.07;2.30;;;12.70;53.40;;;;;;4956647;28;20038;-72
2023/01/27 13:29:27;;;;;;;9.98;2.17;;;12.50;52.50;;;;;;4952670;28;20386;-72
2023/01/27 13:32:12;;;;;;;6.25;1.75;;;12.00;56.50;;;;;;4958702;28;20030;-71
2023/01/27 13:34:56;;;;;;;5.40;1.42;;;11.60;55.00;;;;;;4959916;28;20039;-72
2023/01/27 13:37:27;;;;;;;5.63;1.15;;;11.50;56.90;;;;;;4958364;28;20328;-71
2023/01/27 13:40:13;;;;;;;4.65;1.25;;;11.50;56.50;;;;;;4960846;28;20050;-72
2023/01/27 13:42:42;;;;;;;3.88;0.60;;;11.80;59.20;;;;;;4960083;28;20034;-72
2023/01/27 13:45:39;;;;;;;4.55;0.88;;;11.20;55.60;;;;;;4960279;28;20437;-71
2023/01/27 13:48:28;;;;;;;6.78;0.90;;;10.40;55.80;;;;;;4952946;28;20041;-72